sensor_id;sensor_type;location;lat;lon;timestamp;P1;durP1;ratioP1;P2;durP2;ratioP2
80215;SDS011;69532;37.974;23.708;2023-04-24T00:00:08;18.75;;;11.90;;
80215;SDS011;69532;37.974;23.708;2023-04-24T00:02:38;16.00;;;11.55;;
80215;SDS011;69532;37.974;23.708;2023-04-24T00:05:04;17.50;;;11.82;;
80215;SDS011;69532;37.974;23.708;2023-04-24T00:07:31;18.35;;;12.20;;
80215;SDS011;69532;37.974;23.708;2023-04-24T00:09:57;18.23;;;11.70;;
80215;SDS011;69532;37.974;23.708;2023-04-24T00:12:23;17.55;;;11.82;;
80215;SDS011;69532;37.974;23.708;2023-04-24T00:14:50;18.27;;;12.18;;
80215;SDS011;69532;37.974;23.708;2023-04-24T00:17:16;16.65;;;11.77;;
80215;SDS011;69532;37.974;23.708;2023-04-24T00:19:46;17.58;;;12.15;;
80215;SDS011;69532;37.974;23.708;2023-04-24T00:22:12;19.17;;;11.57;;
80215;SDS011;69532;37.974;23.708;2023-04-24T00:24:41;19.58;;;11.73;;
80215;SDS011;69532;37.974;23.708;2023-04-24T00:27:06;17.25;;;11.23;;
80215;SDS011;69532;37.974;23.708;2023-04-24T00:29:32;16.30;;;11.65;;
80215;SDS011;69532;37.974;23.708;2023-04-24T00:31:58;20.15;;;11.48;;
80215;SDS011;69532;37.974;23.708;2023-04-24T00:34:23;18.20;;;11.20;;
80215;SDS011;69532;37.974;23.708;2023-04-24T00:36:49;18.92;;;11.00;;
80215;SDS011;69532;37.974;23.708;2023-04-24T00:39:18;16.77;;;10.88;;
80215;SDS011;69532;37.974;23.708;2023-04-24T00:41:44;19.30;;;12.52;;
80215;SDS011;69532;37.974;23.708;2023-04-24T00:44:11;18.02;;;11.60;;
80215;SDS011;69532;37.974;23.708;2023-04-24T00:46:37;19.48;;;11.43;;
80215;SDS011;69532;37.974;23.708;2023-04-24T00:49:04;20.10;;;12.43;;
80215;SDS011;69532;37.974;23.708;2023-04-24T00:51:30;17.08;;;10.50;;
80215;SDS011;69532;37.974;23.708;2023-04-24T00:53:57;19.85;;;11.80;;
80215;SDS011;69532;37.974;23.708;2023-04-24T00:56:24;18.13;;;11.75;;
80215;SDS011;69532;37.974;23.708;2023-04-24T00:58:50;19.05;;;11.27;;
80215;SDS011;69532;37.974;23.708;2023-04-24T01:01:16;18.17;;;10.95;;
80215;SDS011;69532;37.974;23.708;2023-04-24T01:03:45;15.88;;;11.07;;
80215;SDS011;69532;37.974;23.708;2023-04-24T01:06:11;17.42;;;11.38;;
80215;SDS011;69532;37.974;23.708;2023-04-24T01:08:38;16.92;;;10.90;;
80215;SDS011;69532;37.974;23.708;2023-04-24T01:11:05;15.93;;;10.88;;
80215;SDS011;69532;37.974;23.708;2023-04-24T01:13:32;17.10;;;11.02;;
80215;SDS011;69532;37.974;23.708;2023-04-24T01:15:59;17.20;;;11.13;;
80215;SDS011;69532;37.974;23.708;2023-04-24T01:18:26;16.05;;;11.13;;
80215;SDS011;69532;37.974;23.708;2023-04-24T01:21:02;16.58;;;10.80;;
80215;SDS011;69532;37.974;23.708;2023-04-24T01:23:29;16.10;;;11.18;;
80215;SDS011;69532;37.974;23.708;2023-04-24T01:25:55;17.80;;;11.93;;
80215;SDS011;69532;37.974;23.708;2023-04-24T01:28:21;16.40;;;11.00;;
80215;SDS011;69532;37.974;23.708;2023-04-24T01:30:47;15.27;;;11.52;;
80215;SDS011;69532;37.974;23.708;2023-04-24T01:33:13;16.77;;;11.02;;
80215;SDS011;69532;37.974;23.708;2023-04-24T01:35:39;15.23;;;10.23;;
80215;SDS011;69532;37.974;23.708;2023-04-24T01:38:05;17.02;;;11.15;;
80215;SDS011;69532;37.974;23.708;2023-04-24T01:40:31;17.17;;;10.50;;
80215;SDS011;69532;37.974;23.708;2023-04-24T01:42:57;16.50;;;10.70;;
80215;SDS011;69532;37.974;23.708;2023-04-24T01:45:24;15.93;;;10.88;;
80215;SDS011;69532;37.974;23.708;2023-04-24T01:47:50;17.60;;;11.27;;
80215;SDS011;69532;37.974;23.708;2023-04-24T01:50:16;17.25;;;11.27;;
80215;SDS011;69532;37.974;23.708;2023-04-24T01:52:42;19.05;;;11.40;;
80215;SDS011;69532;37.974;23.708;2023-04-24T01:55:08;17.88;;;11.20;;
80215;SDS011;69532;37.974;23.708;2023-04-24T01:57:34;15.98;;;11.25;;
80215;SDS011;69532;37.974;23.708;2023-04-24T02:00:00;17.92;;;11.40;;
80215;SDS011;69532;37.974;23.708;2023-04-24T02:02:29;15.20;;;10.63;;
80215;SDS011;69532;37.974;23.708;2023-04-24T02:04:55;18.13;;;11.73;;
80215;SDS011;69532;37.974;23.708;2023-04-24T02:07:21;15.77;;;11.10;;
80215;SDS011;69532;37.974;23.708;2023-04-24T02:09:47;16.48;;;11.70;;
80215;SDS011;69532;37.974;23.708;2023-04-24T02:12:13;17.85;;;11.48;;
80215;SDS011;69532;37.974;23.708;2023-04-24T02:14:45;20.75;;;11.90;;
80215;SDS011;69532;37.974;23.708;2023-04-24T02:17:10;16.45;;;11.35;;
80215;SDS011;69532;37.974;23.708;2023-04-24T02:19:38;21.30;;;12.65;;
80215;SDS011;69532;37.974;23.708;2023-04-24T02:22:04;18.08;;;11.07;;
80215;SDS011;69532;37.974;23.708;2023-04-24T02:24:29;17.83;;;11.77;;
80215;SDS011;69532;37.974;23.708;2023-04-24T02:26:55;15.80;;;10.77;;
80215;SDS011;69532;37.974;23.708;2023-04-24T02:29:21;15.40;;;11.82;;
80215;SDS011;69532;37.974;23.708;2023-04-24T02:31:47;17.30;;;11.63;;
80215;SDS011;69532;37.974;23.708;2023-04-24T02:34:13;16.17;;;10.88;;
80215;SDS011;69532;37.974;23.708;2023-04-24T02:36:39;19.38;;;11.75;;
80215;SDS011;69532;37.974;23.708;2023-04-24T02:39:04;17.45;;;11.70;;
80215;SDS011;69532;37.974;23.708;2023-04-24T02:41:30;16.70;;;11.30;;
80215;SDS011;69532;37.974;23.708;2023-04-24T02:43:58;16.20;;;11.05;;
80215;SDS011;69532;37.974;23.708;2023-04-24T02:46:24;18.27;;;11.30;;
80215;SDS011;69532;37.974;23.708;2023-04-24T02:48:50;18.65;;;11.50;;
80215;SDS011;69532;37.974;23.708;2023-04-24T02:51:16;18.33;;;11.20;;
80215;SDS011;69532;37.974;23.708;2023-04-24T02:53:41;16.75;;;11.48;;
80215;SDS011;69532;37.974;23.708;2023-04-24T02:56:07;18.90;;;11.98;;
80215;SDS011;69532;37.974;23.708;2023-04-24T02:58:33;18.33;;;11.52;;
80215;SDS011;69532;37.974;23.708;2023-04-24T03:00:59;16.75;;;10.85;;
80215;SDS011;69532;37.974;23.708;2023-04-24T03:03:25;17.85;;;11.20;;
80215;SDS011;69532;37.974;23.708;2023-04-24T03:05:51;19.13;;;12.07;;
80215;SDS011;69532;37.974;23.708;2023-04-24T03:08:17;15.45;;;11.18;;
80215;SDS011;69532;37.974;23.708;2023-04-24T03:10:43;15.90;;;10.40;;
80215;SDS011;69532;37.974;23.708;2023-04-24T03:13:09;18.60;;;11.30;;
80215;SDS011;69532;37.974;23.708;2023-04-24T03:15:34;16.65;;;10.77;;
80215;SDS011;69532;37.974;23.708;2023-04-24T03:18:00;17.38;;;11.10;;
80215;SDS011;69532;37.974;23.708;2023-04-24T03:20:27;18.38;;;11.95;;
80215;SDS011;69532;37.974;23.708;2023-04-24T03:22:53;17.90;;;10.90;;
80215;SDS011;69532;37.974;23.708;2023-04-24T03:25:19;18.63;;;10.88;;
80215;SDS011;69532;37.974;23.708;2023-04-24T03:27:45;16.73;;;10.73;;
80215;SDS011;69532;37.974;23.708;2023-04-24T03:30:11;18.20;;;11.50;;
80215;SDS011;69532;37.974;23.708;2023-04-24T03:32:37;20.42;;;11.07;;
80215;SDS011;69532;37.974;23.708;2023-04-24T03:35:04;17.45;;;11.02;;
80215;SDS011;69532;37.974;23.708;2023-04-24T03:37:32;21.65;;;11.32;;
80215;SDS011;69532;37.974;23.708;2023-04-24T03:39:57;20.00;;;10.52;;
80215;SDS011;69532;37.974;23.708;2023-04-24T03:42:23;18.20;;;10.35;;
80215;SDS011;69532;37.974;23.708;2023-04-24T03:44:49;16.63;;;10.15;;
80215;SDS011;69532;37.974;23.708;2023-04-24T03:47:15;20.27;;;11.48;;
80215;SDS011;69532;37.974;23.708;2023-04-24T03:49:40;17.42;;;9.75;;
80215;SDS011;69532;37.974;23.708;2023-04-24T03:52:06;18.75;;;10.15;;
80215;SDS011;69532;37.974;23.708;2023-04-24T03:54:32;19.23;;;10.52;;
80215;SDS011;69532;37.974;23.708;2023-04-24T03:56:57;20.58;;;10.55;;
80215;SDS011;69532;37.974;23.708;2023-04-24T03:59:23;20.38;;;9.93;;
80215;SDS011;69532;37.974;23.708;2023-04-24T04:01:49;23.52;;;10.80;;
80215;SDS011;69532;37.974;23.708;2023-04-24T04:04:15;17.08;;;10.15;;
80215;SDS011;69532;37.974;23.708;2023-04-24T04:06:40;17.27;;;10.88;;
80215;SDS011;69532;37.974;23.708;2023-04-24T04:09:07;17.63;;;10.27;;
80215;SDS011;69532;37.974;23.708;2023-04-24T04:11:33;16.90;;;10.45;;
80215;SDS011;69532;37.974;23.708;2023-04-24T04:14:00;15.98;;;10.07;;
80215;SDS011;69532;37.974;23.708;2023-04-24T04:16:26;19.27;;;10.82;;
80215;SDS011;69532;37.974;23.708;2023-04-24T04:18:52;18.48;;;10.93;;
80215;SDS011;69532;37.974;23.708;2023-04-24T04:21:17;19.60;;;10.95;;
80215;SDS011;69532;37.974;23.708;2023-04-24T04:23:43;17.10;;;11.35;;
80215;SDS011;69532;37.974;23.708;2023-04-24T04:26:09;17.92;;;11.98;;
80215;SDS011;69532;37.974;23.708;2023-04-24T04:28:36;16.88;;;10.77;;
80215;SDS011;69532;37.974;23.708;2023-04-24T04:31:02;17.50;;;11.18;;
80215;SDS011;69532;37.974;23.708;2023-04-24T04:33:28;20.88;;;11.57;;
80215;SDS011;69532;37.974;23.708;2023-04-24T04:35:54;15.80;;;11.02;;
80215;SDS011;69532;37.974;23.708;2023-04-24T04:38:21;16.48;;;10.70;;
80215;SDS011;69532;37.974;23.708;2023-04-24T04:40:47;20.23;;;11.07;;
80215;SDS011;69532;37.974;23.708;2023-04-24T04:43:14;18.45;;;10.85;;
80215;SDS011;69532;37.974;23.708;2023-04-24T04:45:42;20.80;;;11.85;;
80215;SDS011;69532;37.974;23.708;2023-04-24T04:48:09;19.05;;;11.38;;
80215;SDS011;69532;37.974;23.708;2023-04-24T04:50:37;18.77;;;10.98;;
80215;SDS011;69532;37.974;23.708;2023-04-24T04:53:03;20.13;;;11.65;;
80215;SDS011;69532;37.974;23.708;2023-04-24T04:55:30;19.08;;;11.02;;
80215;SDS011;69532;37.974;23.708;2023-04-24T04:57:56;16.60;;;11.05;;
80215;SDS011;69532;37.974;23.708;2023-04-24T05:00:22;19.73;;;11.20;;
80215;SDS011;69532;37.974;23.708;2023-04-24T05:02:51;16.70;;;11.45;;
80215;SDS011;69532;37.974;23.708;2023-04-24T05:05:17;18.70;;;11.98;;
80215;SDS011;69532;37.974;23.708;2023-04-24T05:07:43;18.85;;;11.70;;
80215;SDS011;69532;37.974;23.708;2023-04-24T05:10:09;16.42;;;11.20;;
80215;SDS011;69532;37.974;23.708;2023-04-24T05:12:35;19.63;;;11.38;;
80215;SDS011;69532;37.974;23.708;2023-04-24T05:15:01;19.58;;;11.50;;
80215;SDS011;69532;37.974;23.708;2023-04-24T05:17:27;21.35;;;12.13;;
80215;SDS011;69532;37.974;23.708;2023-04-24T05:19:53;19.17;;;12.52;;
80215;SDS011;69532;37.974;23.708;2023-04-24T05:22:19;16.50;;;9.95;;
80215;SDS011;69532;37.974;23.708;2023-04-24T05:24:46;17.17;;;10.15;;
80215;SDS011;69532;37.974;23.708;2023-04-24T05:27:12;14.85;;;10.77;;
80215;SDS011;69532;37.974;23.708;2023-04-24T05:29:38;16.70;;;10.68;;
80215;SDS011;69532;37.974;23.708;2023-04-24T05:32:03;14.82;;;9.32;;
80215;SDS011;69532;37.974;23.708;2023-04-24T05:34:29;14.85;;;9.20;;
80215;SDS011;69532;37.974;23.708;2023-04-24T05:36:55;14.02;;;9.45;;
80215;SDS011;69532;37.974;23.708;2023-04-24T05:39:21;16.10;;;9.55;;
80215;SDS011;69532;37.974;23.708;2023-04-24T05:41:46;19.20;;;9.27;;
80215;SDS011;69532;37.974;23.708;2023-04-24T05:44:12;15.18;;;8.07;;
80215;SDS011;69532;37.974;23.708;2023-04-24T05:46:38;12.65;;;9.00;;
80215;SDS011;69532;37.974;23.708;2023-04-24T05:49:04;12.18;;;7.47;;
80215;SDS011;69532;37.974;23.708;2023-04-24T05:51:30;14.13;;;8.32;;
80215;SDS011;69532;37.974;23.708;2023-04-24T05:53:56;14.52;;;8.73;;
80215;SDS011;69532;37.974;23.708;2023-04-24T05:56:22;12.77;;;7.55;;
80215;SDS011;69532;37.974;23.708;2023-04-24T05:58:48;12.40;;;6.93;;
80215;SDS011;69532;37.974;23.708;2023-04-24T06:01:14;11.82;;;7.10;;
80215;SDS011;69532;37.974;23.708;2023-04-24T06:03:40;12.68;;;7.30;;
80215;SDS011;69532;37.974;23.708;2023-04-24T06:06:07;10.43;;;6.40;;
80215;SDS011;69532;37.974;23.708;2023-04-24T06:08:33;10.05;;;6.38;;
80215;SDS011;69532;37.974;23.708;2023-04-24T06:10:59;12.50;;;7.55;;
80215;SDS011;69532;37.974;23.708;2023-04-24T06:13:25;10.77;;;6.85;;
80215;SDS011;69532;37.974;23.708;2023-04-24T06:15:51;9.52;;;6.13;;
80215;SDS011;69532;37.974;23.708;2023-04-24T06:18:19;9.38;;;6.00;;
80215;SDS011;69532;37.974;23.708;2023-04-24T06:20:46;10.55;;;6.28;;
80215;SDS011;69532;37.974;23.708;2023-04-24T06:23:11;10.80;;;6.20;;
80215;SDS011;69532;37.974;23.708;2023-04-24T06:25:37;9.35;;;6.07;;
80215;SDS011;69532;37.974;23.708;2023-04-24T06:28:03;9.20;;;5.55;;
80215;SDS011;69532;37.974;23.708;2023-04-24T06:30:29;10.95;;;5.60;;
80215;SDS011;69532;37.974;23.708;2023-04-24T06:32:55;10.50;;;6.45;;
80215;SDS011;69532;37.974;23.708;2023-04-24T06:35:21;8.40;;;5.43;;
80215;SDS011;69532;37.974;23.708;2023-04-24T06:37:47;7.75;;;5.40;;
80215;SDS011;69532;37.974;23.708;2023-04-24T06:40:13;8.60;;;5.35;;
80215;SDS011;69532;37.974;23.708;2023-04-24T06:42:39;8.68;;;5.50;;
80215;SDS011;69532;37.974;23.708;2023-04-24T06:45:05;8.10;;;5.10;;
80215;SDS011;69532;37.974;23.708;2023-04-24T06:47:31;7.35;;;4.85;;
80215;SDS011;69532;37.974;23.708;2023-04-24T06:49:57;7.32;;;4.47;;
80215;SDS011;69532;37.974;23.708;2023-04-24T06:52:23;8.63;;;4.45;;
80215;SDS011;69532;37.974;23.708;2023-04-24T06:54:49;6.82;;;4.35;;
80215;SDS011;69532;37.974;23.708;2023-04-24T06:57:15;8.93;;;4.45;;
80215;SDS011;69532;37.974;23.708;2023-04-24T06:59:41;7.20;;;3.90;;
80215;SDS011;69532;37.974;23.708;2023-04-24T07:02:07;7.63;;;4.60;;
80215;SDS011;69532;37.974;23.708;2023-04-24T07:04:33;8.32;;;4.88;;
80215;SDS011;69532;37.974;23.708;2023-04-24T07:06:58;8.75;;;4.32;;
80215;SDS011;69532;37.974;23.708;2023-04-24T07:09:25;6.63;;;4.10;;
80215;SDS011;69532;37.974;23.708;2023-04-24T07:11:51;7.43;;;4.45;;
80215;SDS011;69532;37.974;23.708;2023-04-24T07:14:18;7.35;;;3.95;;
80215;SDS011;69532;37.974;23.708;2023-04-24T07:16:44;7.45;;;3.92;;
80215;SDS011;69532;37.974;23.708;2023-04-24T07:19:11;7.15;;;4.05;;
80215;SDS011;69532;37.974;23.708;2023-04-24T07:21:39;7.60;;;4.93;;
80215;SDS011;69532;37.974;23.708;2023-04-24T07:24:10;7.53;;;4.60;;
80215;SDS011;69532;37.974;23.708;2023-04-24T07:26:36;7.70;;;4.57;;
80215;SDS011;69532;37.974;23.708;2023-04-24T07:29:03;8.30;;;4.30;;
80215;SDS011;69532;37.974;23.708;2023-04-24T07:31:31;8.23;;;4.72;;
80215;SDS011;69532;37.974;23.708;2023-04-24T07:33:58;8.48;;;3.88;;
80215;SDS011;69532;37.974;23.708;2023-04-24T07:36:24;7.43;;;3.95;;
80215;SDS011;69532;37.974;23.708;2023-04-24T07:38:51;8.20;;;3.80;;
80215;SDS011;69532;37.974;23.708;2023-04-24T07:41:17;6.65;;;3.90;;
80215;SDS011;69532;37.974;23.708;2023-04-24T07:43:46;6.15;;;3.47;;
80215;SDS011;69532;37.974;23.708;2023-04-24T07:46:12;6.95;;;3.72;;
80215;SDS011;69532;37.974;23.708;2023-04-24T07:48:37;6.32;;;3.50;;
80215;SDS011;69532;37.974;23.708;2023-04-24T07:51:03;6.93;;;3.25;;
80215;SDS011;69532;37.974;23.708;2023-04-24T07:53:29;5.68;;;3.15;;
80215;SDS011;69532;37.974;23.708;2023-04-24T07:55:58;6.25;;;3.17;;
80215;SDS011;69532;37.974;23.708;2023-04-24T07:58:24;7.43;;;3.60;;
80215;SDS011;69532;37.974;23.708;2023-04-24T08:00:56;5.82;;;3.40;;
80215;SDS011;69532;37.974;23.708;2023-04-24T08:03:21;5.75;;;3.28;;
80215;SDS011;69532;37.974;23.708;2023-04-24T08:05:47;5.95;;;3.35;;
80215;SDS011;69532;37.974;23.708;2023-04-24T08:08:13;6.00;;;3.67;;
80215;SDS011;69532;37.974;23.708;2023-04-24T08:10:39;6.15;;;3.40;;
80215;SDS011;69532;37.974;23.708;2023-04-24T08:13:04;5.50;;;3.40;;
80215;SDS011;69532;37.974;23.708;2023-04-24T08:15:30;6.05;;;3.10;;
80215;SDS011;69532;37.974;23.708;2023-04-24T08:17:56;6.63;;;3.45;;
80215;SDS011;69532;37.974;23.708;2023-04-24T08:20:22;5.90;;;3.33;;
80215;SDS011;69532;37.974;23.708;2023-04-24T08:22:48;5.50;;;3.50;;
80215;SDS011;69532;37.974;23.708;2023-04-24T08:25:14;6.07;;;3.47;;
80215;SDS011;69532;37.974;23.708;2023-04-24T08:27:39;11.20;;;4.38;;
80215;SDS011;69532;37.974;23.708;2023-04-24T08:30:06;7.53;;;4.13;;
80215;SDS011;69532;37.974;23.708;2023-04-24T08:32:48;6.53;;;3.97;;
80215;SDS011;69532;37.974;23.708;2023-04-24T08:37:42;5.60;;;3.40;;
80215;SDS011;69532;37.974;23.708;2023-04-24T08:40:12;6.68;;;3.67;;
80215;SDS011;69532;37.974;23.708;2023-04-24T08:42:43;7.72;;;3.53;;
80215;SDS011;69532;37.974;23.708;2023-04-24T08:45:13;5.72;;;3.47;;
80215;SDS011;69532;37.974;23.708;2023-04-24T08:47:39;6.32;;;3.60;;
80215;SDS011;69532;37.974;23.708;2023-04-24T08:50:06;6.32;;;3.20;;
80215;SDS011;69532;37.974;23.708;2023-04-24T08:52:33;6.82;;;3.42;;
80215;SDS011;69532;37.974;23.708;2023-04-24T08:55:02;6.30;;;3.25;;
80215;SDS011;69532;37.974;23.708;2023-04-24T08:57:28;8.45;;;3.97;;
80215;SDS011;69532;37.974;23.708;2023-04-24T08:59:56;8.27;;;4.20;;
80215;SDS011;69532;37.974;23.708;2023-04-24T09:02:23;6.07;;;3.53;;
80215;SDS011;69532;37.974;23.708;2023-04-24T09:04:49;5.82;;;3.67;;
80215;SDS011;69532;37.974;23.708;2023-04-24T09:07:16;7.70;;;3.58;;
80215;SDS011;69532;37.974;23.708;2023-04-24T09:09:44;6.20;;;3.50;;
80215;SDS011;69532;37.974;23.708;2023-04-24T09:12:10;7.78;;;3.83;;
80215;SDS011;69532;37.974;23.708;2023-04-24T09:14:37;5.97;;;3.60;;
80215;SDS011;69532;37.974;23.708;2023-04-24T09:17:07;5.72;;;3.50;;
80215;SDS011;69532;37.974;23.708;2023-04-24T09:19:33;6.03;;;3.25;;
80215;SDS011;69532;37.974;23.708;2023-04-24T09:21:58;6.25;;;3.13;;
80215;SDS011;69532;37.974;23.708;2023-04-24T09:24:27;6.07;;;3.45;;
80215;SDS011;69532;37.974;23.708;2023-04-24T09:26:57;6.13;;;3.47;;
80215;SDS011;69532;37.974;23.708;2023-04-24T09:29:24;7.35;;;3.67;;
80215;SDS011;69532;37.974;23.708;2023-04-24T09:31:50;8.88;;;3.50;;
80215;SDS011;69532;37.974;23.708;2023-04-24T09:34:20;5.15;;;2.95;;
80215;SDS011;69532;37.974;23.708;2023-04-24T09:36:48;5.78;;;3.40;;
80215;SDS011;69532;37.974;23.708;2023-04-24T09:39:15;6.65;;;3.38;;
80215;SDS011;69532;37.974;23.708;2023-04-24T09:44:39;5.18;;;3.10;;
80215;SDS011;69532;37.974;23.708;2023-04-24T09:47:06;7.25;;;3.25;;
80215;SDS011;69532;37.974;23.708;2023-04-24T09:49:35;6.30;;;3.45;;
80215;SDS011;69532;37.974;23.708;2023-04-24T09:52:09;7.35;;;4.10;;
80215;SDS011;69532;37.974;23.708;2023-04-24T09:54:36;5.63;;;3.20;;
80215;SDS011;69532;37.974;23.708;2023-04-24T09:57:02;5.95;;;3.10;;
80215;SDS011;69532;37.974;23.708;2023-04-24T09:59:29;5.18;;;3.10;;
80215;SDS011;69532;37.974;23.708;2023-04-24T10:01:55;5.53;;;3.38;;
80215;SDS011;69532;37.974;23.708;2023-04-24T10:04:22;6.55;;;3.17;;
80215;SDS011;69532;37.974;23.708;2023-04-24T10:06:53;5.75;;;3.25;;
80215;SDS011;69532;37.974;23.708;2023-04-24T10:09:25;6.47;;;3.08;;
80215;SDS011;69532;37.974;23.708;2023-04-24T10:11:52;6.90;;;3.45;;
80215;SDS011;69532;37.974;23.708;2023-04-24T10:14:23;7.15;;;3.38;;
80215;SDS011;69532;37.974;23.708;2023-04-24T10:16:51;7.25;;;3.60;;
80215;SDS011;69532;37.974;23.708;2023-04-24T10:19:19;5.93;;;3.72;;
80215;SDS011;69532;37.974;23.708;2023-04-24T10:21:47;6.85;;;3.42;;
80215;SDS011;69532;37.974;23.708;2023-04-24T10:24:15;6.00;;;3.33;;
80215;SDS011;69532;37.974;23.708;2023-04-24T10:26:42;5.30;;;3.30;;
80215;SDS011;69532;37.974;23.708;2023-04-24T10:29:10;6.28;;;3.30;;
80215;SDS011;69532;37.974;23.708;2023-04-24T10:31:43;5.43;;;3.20;;
80215;SDS011;69532;37.974;23.708;2023-04-24T10:34:13;5.72;;;3.17;;
80215;SDS011;69532;37.974;23.708;2023-04-24T10:36:50;6.60;;;3.50;;
80215;SDS011;69532;37.974;23.708;2023-04-24T10:39:17;7.03;;;3.60;;
80215;SDS011;69532;37.974;23.708;2023-04-24T10:41:44;5.55;;;3.10;;
80215;SDS011;69532;37.974;23.708;2023-04-24T10:44:14;6.78;;;3.78;;
80215;SDS011;69532;37.974;23.708;2023-04-24T10:46:44;6.25;;;3.55;;
80215;SDS011;69532;37.974;23.708;2023-04-24T10:49:14;5.85;;;3.40;;
80215;SDS011;69532;37.974;23.708;2023-04-24T10:56:49;7.03;;;3.40;;
80215;SDS011;69532;37.974;23.708;2023-04-24T10:59:36;5.95;;;3.50;;
80215;SDS011;69532;37.974;23.708;2023-04-24T11:02:02;6.82;;;3.28;;
80215;SDS011;69532;37.974;23.708;2023-04-24T11:04:33;6.15;;;3.75;;
80215;SDS011;69532;37.974;23.708;2023-04-24T11:07:00;5.97;;;3.50;;
80215;SDS011;69532;37.974;23.708;2023-04-24T11:09:27;6.63;;;3.85;;
80215;SDS011;69532;37.974;23.708;2023-04-24T11:12:09;6.45;;;3.70;;
80215;SDS011;69532;37.974;23.708;2023-04-24T11:17:30;6.43;;;4.00;;
80215;SDS011;69532;37.974;23.708;2023-04-24T11:20:05;6.32;;;3.67;;
80215;SDS011;69532;37.974;23.708;2023-04-24T11:22:36;6.35;;;3.80;;
80215;SDS011;69532;37.974;23.708;2023-04-24T11:25:08;5.68;;;3.50;;
80215;SDS011;69532;37.974;23.708;2023-04-24T11:30:07;6.50;;;3.78;;
80215;SDS011;69532;37.974;23.708;2023-04-24T11:35:15;5.85;;;3.20;;
80215;SDS011;69532;37.974;23.708;2023-04-24T11:37:49;7.88;;;3.50;;
80215;SDS011;69532;37.974;23.708;2023-04-24T11:40:17;6.25;;;3.58;;
80215;SDS011;69532;37.974;23.708;2023-04-24T11:42:48;5.80;;;3.30;;
80215;SDS011;69532;37.974;23.708;2023-04-24T11:45:16;5.97;;;3.30;;
80215;SDS011;69532;37.974;23.708;2023-04-24T11:47:44;5.18;;;3.10;;
80215;SDS011;69532;37.974;23.708;2023-04-24T11:50:14;7.18;;;4.00;;
80215;SDS011;69532;37.974;23.708;2023-04-24T11:52:43;6.03;;;4.03;;
80215;SDS011;69532;37.974;23.708;2023-04-24T11:57:47;7.80;;;4.32;;
80215;SDS011;69532;37.974;23.708;2023-04-24T12:00:21;7.20;;;3.58;;
80215;SDS011;69532;37.974;23.708;2023-04-24T12:02:47;8.63;;;4.10;;
80215;SDS011;69532;37.974;23.708;2023-04-24T12:05:24;6.63;;;3.70;;
80215;SDS011;69532;37.974;23.708;2023-04-24T12:07:53;5.40;;;3.70;;
80215;SDS011;69532;37.974;23.708;2023-04-24T12:10:26;6.50;;;3.63;;
80215;SDS011;69532;37.974;23.708;2023-04-24T12:12:54;5.22;;;3.45;;
80215;SDS011;69532;37.974;23.708;2023-04-24T12:15:22;6.38;;;3.70;;
80215;SDS011;69532;37.974;23.708;2023-04-24T12:17:52;8.20;;;3.47;;
80215;SDS011;69532;37.974;23.708;2023-04-24T12:20:26;6.38;;;3.25;;
80215;SDS011;69532;37.974;23.708;2023-04-24T12:22:54;6.35;;;3.35;;
80215;SDS011;69532;37.974;23.708;2023-04-24T12:25:22;6.38;;;3.40;;
80215;SDS011;69532;37.974;23.708;2023-04-24T12:27:53;5.97;;;3.13;;
80215;SDS011;69532;37.974;23.708;2023-04-24T12:30:28;6.20;;;3.25;;
80215;SDS011;69532;37.974;23.708;2023-04-24T12:32:54;6.90;;;3.30;;
80215;SDS011;69532;37.974;23.708;2023-04-24T12:35:22;6.15;;;3.22;;
80215;SDS011;69532;37.974;23.708;2023-04-24T12:37:49;9.15;;;3.78;;
80215;SDS011;69532;37.974;23.708;2023-04-24T12:40:16;7.07;;;3.20;;
80215;SDS011;69532;37.974;23.708;2023-04-24T12:42:47;6.97;;;3.63;;
80215;SDS011;69532;37.974;23.708;2023-04-24T12:45:17;5.75;;;3.38;;
80215;SDS011;69532;37.974;23.708;2023-04-24T12:47:44;6.03;;;3.38;;
80215;SDS011;69532;37.974;23.708;2023-04-24T12:50:11;6.13;;;3.20;;
80215;SDS011;69532;37.974;23.708;2023-04-24T12:52:39;5.82;;;3.30;;
80215;SDS011;69532;37.974;23.708;2023-04-24T12:55:06;5.40;;;3.17;;
80215;SDS011;69532;37.974;23.708;2023-04-24T12:57:36;4.78;;;3.05;;
80215;SDS011;69532;37.974;23.708;2023-04-24T13:00:02;6.45;;;3.60;;
80215;SDS011;69532;37.974;23.708;2023-04-24T13:02:30;6.68;;;3.55;;
80215;SDS011;69532;37.974;23.708;2023-04-24T13:04:56;5.00;;;3.10;;
80215;SDS011;69532;37.974;23.708;2023-04-24T13:07:23;7.45;;;3.78;;
80215;SDS011;69532;37.974;23.708;2023-04-24T13:09:50;6.55;;;3.40;;
80215;SDS011;69532;37.974;23.708;2023-04-24T13:12:16;6.03;;;3.22;;
80215;SDS011;69532;37.974;23.708;2023-04-24T13:14:42;5.95;;;3.20;;
80215;SDS011;69532;37.974;23.708;2023-04-24T13:17:08;6.00;;;3.20;;
80215;SDS011;69532;37.974;23.708;2023-04-24T13:19:35;5.72;;;2.97;;
80215;SDS011;69532;37.974;23.708;2023-04-24T13:22:03;5.22;;;3.20;;
80215;SDS011;69532;37.974;23.708;2023-04-24T13:24:29;5.45;;;3.00;;
80215;SDS011;69532;37.974;23.708;2023-04-24T13:26:56;6.38;;;3.05;;
80215;SDS011;69532;37.974;23.708;2023-04-24T13:29:22;5.38;;;2.90;;
80215;SDS011;69532;37.974;23.708;2023-04-24T13:31:52;6.65;;;2.92;;
80215;SDS011;69532;37.974;23.708;2023-04-24T13:34:20;6.60;;;3.00;;
80215;SDS011;69532;37.974;23.708;2023-04-24T13:36:53;6.13;;;3.15;;
80215;SDS011;69532;37.974;23.708;2023-04-24T13:39:19;5.13;;;3.03;;
80215;SDS011;69532;37.974;23.708;2023-04-24T13:41:46;5.38;;;2.85;;
80215;SDS011;69532;37.974;23.708;2023-04-24T13:44:15;5.35;;;2.78;;
80215;SDS011;69532;37.974;23.708;2023-04-24T13:46:42;5.63;;;2.88;;
80215;SDS011;69532;37.974;23.708;2023-04-24T13:49:10;5.30;;;2.90;;
80215;SDS011;69532;37.974;23.708;2023-04-24T13:51:36;5.70;;;3.10;;
80215;SDS011;69532;37.974;23.708;2023-04-24T13:54:03;7.03;;;2.80;;
80215;SDS011;69532;37.974;23.708;2023-04-24T13:56:28;5.43;;;2.80;;
80215;SDS011;69532;37.974;23.708;2023-04-24T13:58:54;5.88;;;2.60;;
80215;SDS011;69532;37.974;23.708;2023-04-24T14:01:20;6.22;;;2.95;;
80215;SDS011;69532;37.974;23.708;2023-04-24T14:03:50;5.93;;;2.88;;
80215;SDS011;69532;37.974;23.708;2023-04-24T14:06:17;5.35;;;2.78;;
80215;SDS011;69532;37.974;23.708;2023-04-24T14:08:43;6.85;;;2.70;;
80215;SDS011;69532;37.974;23.708;2023-04-24T14:11:09;6.05;;;2.60;;
80215;SDS011;69532;37.974;23.708;2023-04-24T14:13:35;5.85;;;2.70;;
80215;SDS011;69532;37.974;23.708;2023-04-24T14:16:02;6.20;;;3.20;;
80215;SDS011;69532;37.974;23.708;2023-04-24T14:18:29;5.07;;;2.88;;
80215;SDS011;69532;37.974;23.708;2023-04-24T14:20:55;5.10;;;2.92;;
80215;SDS011;69532;37.974;23.708;2023-04-24T14:23:20;5.90;;;2.85;;
80215;SDS011;69532;37.974;23.708;2023-04-24T14:25:46;4.93;;;2.88;;
80215;SDS011;69532;37.974;23.708;2023-04-24T14:28:16;5.22;;;2.70;;
80215;SDS011;69532;37.974;23.708;2023-04-24T14:30:42;6.88;;;2.92;;
80215;SDS011;69532;37.974;23.708;2023-04-24T14:33:08;6.50;;;3.20;;
80215;SDS011;69532;37.974;23.708;2023-04-24T14:35:34;6.00;;;2.88;;
80215;SDS011;69532;37.974;23.708;2023-04-24T14:38:00;6.45;;;2.83;;
80215;SDS011;69532;37.974;23.708;2023-04-24T14:40:27;5.45;;;2.83;;
80215;SDS011;69532;37.974;23.708;2023-04-24T14:42:53;4.82;;;2.70;;